Time;durP1;ratioP1;P1;durP2;ratioP2;P2;SDS_P1;SDS_P2;PMS_P1;PMS_P2;Temp;Humidity;BMP_temperature;BMP_pressure;BME280_temperature;BME280_humidity;BME280_pressure;Samples;Min_cycle;Max_cycle;Signal;HPM_P1;HPM_P2
2022/08/20 00:00:13;;;;;;;21.30;16.30;;;;;;;19.16;48.56;100618.53;5046565;28;20042;-55
2022/08/20 00:03:03;;;;;;;28.50;18.13;;;;;;;19.42;49.33;100655.03;5046344;28;20091;-55
2022/08/20 00:05:35;;;;;;;28.55;18.20;;;;;;;19.23;49.86;100667.25;5046417;28;20248;-55
2022/08/20 00:08:02;;;;;;;23.88;18.13;;;;;;;19.21;49.73;100663.81;5059753;28;20209;-56
2022/08/20 00:10:32;;;;;;;27.88;19.02;;;;;;;19.21;50.15;100664.69;5066249;28;20036;-56
2022/08/20 00:12:58;;;;;;;27.67;18.63;;;;;;;19.41;49.73;100650.72;5066137;28;20080;-56
2022/08/20 00:15:30;;;;;;;28.75;19.52;;;;;;;19.46;49.69;100675.00;5046306;28;20038;-56
2022/08/20 00:17:56;;;;;;;23.95;18.23;;;;;;;19.22;50.18;100663.75;5071437;28;20031;-57
2022/08/20 00:20:30;;;;;;;25.48;17.50;;;;;;;18.80;50.58;100617.34;5049869;28;20314;-56
2022/08/20 00:22:57;;;;;;;23.20;18.08;;;;;;;19.34;49.80;100665.03;5071496;28;20051;-56
2022/08/20 00:25:24;;;;;;;30.08;18.83;;;;;;;18.99;51.41;100666.50;5069999;28;20034;-56
2022/08/20 00:27:50;;;;;;;27.95;19.63;;;;;;;19.02;51.24;100664.59;5044788;28;20314;-56
2022/08/20 00:30:16;;;;;;;23.13;18.83;;;;;;;19.16;50.93;100671.06;5063759;28;20078;-56
2022/08/20 00:32:47;;;;;;;26.17;17.88;;;;;;;19.23;51.18;100677.75;5066013;28;20078;-55
2022/08/20 00:35:18;;;;;;;23.65;17.27;;;;;;;19.31;50.62;100680.91;5085950;28;20036;-55
2022/08/20 00:37:44;;;;;;;27.10;17.63;;;;;;;19.04;51.34;100670.63;5067103;28;20293;-55
2022/08/20 00:40:13;;;;;;;27.70;17.63;;;;;;;18.91;51.48;100687.78;5064463;28;20127;-55
2022/08/20 00:42:45;;;;;;;26.67;17.30;;;;;;;19.14;51.50;100682.47;5063735;28;20226;-55
2022/08/20 00:45:11;;;;;;;22.55;17.23;;;;;;;19.09;51.83;100684.41;5045629;28;20040;-55
2022/08/20 00:47:42;;;;;;;24.65;17.45;;;;;;;18.92;52.13;100673.75;5045648;28;20132;-55
2022/08/20 00:50:14;;;;;;;27.77;17.13;;;;;;;18.87;52.27;100673.94;5059863;28;20059;-55
2022/08/20 00:52:43;;;;;;;22.30;16.23;;;;;;;18.48;52.85;100634.34;5055234;28;20314;-56
2022/08/20 00:55:10;;;;;;;21.70;16.17;;;;;;;18.91;52.60;100674.66;5060206;28;20028;-55
2022/08/20 00:57:41;;;;;;;23.80;16.17;;;;;;;18.76;53.21;100692.69;5083985;28;20074;-56
2022/08/20 01:00:15;;;;;;;22.95;16.48;;;;;;;18.61;53.39;100643.44;5065557;28;20302;-56
2022/08/20 01:02:41;;;;;;;23.13;16.02;;;;;;;18.95;52.19;100678.88;5046858;28;20043;-55
2022/08/20 01:05:08;;;;;;;23.83;16.92;;;;;;;18.72;53.27;100682.38;5045184;28;20026;-56
2022/08/20 01:07:35;;;;;;;21.10;16.10;;;;;;;18.96;52.48;100678.81;5055110;28;20332;-55
2022/08/20 01:10:16;;;;;;;27.17;16.20;;;;;;;18.96;52.58;100680.59;5060257;28;20029;-56
2022/08/20 01:12:45;;;;;;;25.08;17.73;;;;;;;18.61;53.18;100639.06;5049274;28;20384;-55
2022/08/20 01:15:15;;;;;;;24.98;16.67;;;;;;;18.55;52.50;100634.03;5085364;28;20067;-55
2022/08/20 01:17:44;;;;;;;23.20;17.25;;;;;;;18.78;53.55;100693.50;5048193;28;20037;-55
2022/08/20 01:20:15;;;;;;;25.63;16.92;;;;;;;18.47;53.48;100649.25;5045044;28;20025;-55
2022/08/20 01:26:07;;;;;;;26.08;17.73;;;;;;;18.64;53.59;100685.31;5055445;28;20317;-55
2022/08/20 01:28:39;;;;;;;31.33;17.50;;;;;;;18.56;53.62;100680.34;5059371;28;20025;-55
2022/08/20 01:31:10;;;;;;;22.02;17.02;;;;;;;18.37;54.29;100677.59;5069622;28;20055;-55
2022/08/20 01:33:36;;;;;;;22.33;19.25;;;;;;;18.35;54.63;100689.91;5082481;28;20040;-54
2022/08/20 01:36:03;;;;;;;25.98;19.55;;;;;;;18.19;54.58;100678.28;5044428;28;20087;-55
2022/08/20 01:38:29;;;;;;;22.52;18.40;;;;;;;17.97;55.52;100686.06;5078124;28;20083;-55
2022/08/20 01:41:28;;;;;;;27.70;19.52;;;;;;;18.26;54.84;100691.09;5059417;28;20025;-55
2022/08/20 01:43:55;;;;;;;25.25;19.63;;;;;;;18.21;54.81;100689.56;5068434;28;20221;-55
2022/08/20 01:46:35;;;;;;;22.60;18.55;;;;;;;17.73;54.87;100641.47;5073580;28;20021;-54
2022/08/20 01:49:10;;;;;;;26.83;19.05;;;;;;;18.16;55.19;100683.66;5068909;28;20025;-54
2022/08/20 01:51:35;;;;;;;24.55;18.17;;;;;;;18.20;54.81;100687.84;5067878;28;20033;-55
2022/08/20 01:54:01;;;;;;;24.20;17.98;;;;;;;17.99;55.82;100689.50;5064250;28;20039;-55
2022/08/20 01:56:30;;;;;;;25.98;17.00;;;;;;;17.85;55.60;100690.81;5047816;28;20036;-55
2022/08/20 01:58:58;;;;;;;23.42;18.20;;;;;;;18.06;55.72;100689.22;5044138;28;20033;-54
2022/08/20 02:01:32;;;;;;;25.80;16.77;;;;;;;17.96;55.77;100703.56;5044232;28;20021;-55
2022/08/20 02:04:00;;;;;;;22.88;16.25;;;;;;;17.80;56.23;100689.25;5044155;28;20025;-55
2022/08/20 02:06:29;;;;;;;19.00;14.90;;;;;;;17.75;55.79;100687.66;5044212;28;20055;-55
2022/08/20 02:08:58;;;;;;;18.23;14.75;;;;;;;17.73;55.85;100689.47;5063284;28;20108;-55
2022/08/20 02:11:23;;;;;;;19.52;14.63;;;;;;;18.00;55.43;100694.69;5048517;28;20049;-55
2022/08/20 02:13:51;;;;;;;24.55;14.68;;;;;;;17.69;55.55;100639.88;5042868;28;20391;-55
2022/08/20 02:16:22;;;;;;;19.25;14.43;;;;;;;17.66;55.78;100643.44;5043957;28;20041;-55
2022/08/20 02:18:53;;;;;;;24.93;13.90;;;;;;;17.89;55.76;100697.66;5043867;28;20025;-56
2022/08/20 02:21:21;;;;;;;20.85;14.65;;;;;;;17.64;55.35;100642.63;5044046;28;20048;-55
2022/08/20 02:23:47;;;;;;;15.77;12.90;;;;;;;17.85;56.01;100696.03;5081498;28;20205;-57
2022/08/20 02:26:16;;;;;;;18.42;14.07;;;;;;;17.76;56.24;100697.22;5073590;28;20044;-55
2022/08/20 02:28:41;;;;;;;22.08;14.98;;;;;;;17.83;55.72;100702.25;5063647;28;20041;-55
2022/08/20 02:31:07;;;;;;;17.67;14.27;;;;;;;17.62;56.39;100699.47;5068694;28;20024;-56
2022/08/20 02:33:33;;;;;;;21.08;14.77;;;;;;;17.86;55.68;100703.00;5083152;28;20028;-55
2022/08/20 02:35:59;;;;;;;19.35;16.90;;;;;;;17.75;56.78;100702.53;5047037;28;20213;-55
2022/08/20 02:38:25;;;;;;;23.30;16.73;;;;;;;17.98;56.16;100700.88;5047676;28;20026;-55
2022/08/20 02:40:51;;;;;;;27.10;20.40;;;;;;;17.99;55.91;100703.47;5054790;28;20025;-56
2022/08/20 02:43:18;;;;;;;31.33;21.70;;;;;;;18.10;56.16;100701.31;5057623;28;20025;-56
2022/08/20 02:45:44;;;;;;;39.45;26.23;;;;;;;18.00;56.38;100694.69;5043479;28;20309;-56
2022/08/20 02:48:19;;;;;;;35.70;27.73;;;;;;;17.51;57.12;100650.06;5043494;28;20032;-56
2022/08/20 02:50:56;;;;;;;33.90;27.25;;;;;;;17.99;56.17;100711.31;5079933;28;20400;-56
2022/08/20 02:53:25;;;;;;;38.67;29.77;;;;;;;18.01;56.23;100717.34;5053139;28;20031;-57
2022/08/20 02:55:51;;;;;;;40.20;31.38;;;;;;;17.94;56.92;100716.72;5047089;28;20310;-56
2022/08/20 02:58:18;;;;;;;44.13;32.92;;;;;;;17.68;56.52;100662.56;5043291;28;20108;-56
2022/08/20 03:00:45;;;;;;;39.85;32.08;;;;;;;17.92;56.92;100721.16;5046426;28;20322;-56
2022/08/20 03:03:13;;;;;;;43.35;32.92;;;;;;;17.89;57.14;100741.34;5082651;28;20036;-59
2022/08/20 03:05:41;;;;;;;45.78;34.05;;;;;;;17.99;57.02;100711.31;5083254;28;20028;-56
2022/08/20 03:08:09;;;;;;;44.72;34.65;;;;;;;18.03;57.01;100725.19;5070110;28;20229;-56
2022/08/20 03:10:37;;;;;;;43.95;32.38;;;;;;;17.98;57.48;100709.59;5063025;28;20055;-56
2022/08/20 03:13:03;;;;;;;43.00;32.35;;;;;;;17.94;57.53;100718.47;5066969;28;20096;-56
2022/08/20 03:15:30;;;;;;;41.67;32.53;;;;;;;18.19;56.85;100722.88;5083253;28;20256;-56
2022/08/20 03:17:56;;;;;;;42.05;31.42;;;;;;;18.31;57.02;100727.63;5043532;28;20033;-56
2022/08/20 03:20:23;;;;;;;42.83;31.13;;;;;;;18.48;56.11;100720.91;5043068;28;20026;-56
2022/08/20 03:22:49;;;;;;;31.42;27.20;;;;;;;18.13;57.34;100712.56;5055587;28;20245;-56
2022/08/20 03:25:15;;;;;;;33.35;24.95;;;;;;;18.14;57.25;100728.25;5068835;28;20096;-56
2022/08/20 03:27:41;;;;;;;36.92;25.55;;;;;;;18.28;57.18;100723.38;5081244;28;20104;-55
2022/08/20 03:30:09;;;;;;;33.35;24.33;;;;;;;18.21;57.34;100734.13;5059523;28;20213;-55
2022/08/20 03:32:36;;;;;;;43.90;24.67;;;;;;;18.36;56.72;100733.59;5079799;28;20031;-56
2022/08/20 03:35:05;;;;;;;28.50;19.38;;;;;;;18.32;57.25;100731.13;5082585;28;20537;-56
2022/08/20 03:37:33;;;;;;;26.88;18.38;;;;;;;18.37;57.19;100731.81;5074931;28;20056;-55
2022/08/20 03:39:59;;;;;;;25.10;16.25;;;;;;;18.20;57.54;100738.53;5059288;28;20049;-55
2022/08/20 03:42:25;;;;;;;18.60;14.55;;;;;;;18.33;57.16;100727.56;5043137;28;20060;-55
2022/08/20 03:44:52;;;;;;;25.27;14.60;;;;;;;18.51;56.81;100726.88;5043049;28;20041;-55
2022/08/20 03:47:18;;;;;;;21.45;12.45;;;;;;;18.20;57.42;100735.03;5042766;28;20026;-56
2022/08/20 03:49:44;;;;;;;23.08;13.00;;;;;;;18.17;57.45;100738.66;5042514;28;20063;-55
2022/08/20 03:52:12;;;;;;;19.02;12.52;;;;;;;18.26;57.18;100727.81;5041085;28;20021;-55
2022/08/20 03:54:37;;;;;;;19.13;11.43;;;;;;;18.35;57.86;100742.34;5046800;28;20025;-55
2022/08/20 03:57:05;;;;;;;17.77;11.20;;;;;;;18.52;56.98;100738.25;5042827;28;20029;-55
2022/08/20 03:59:31;;;;;;;19.35;11.63;;;;;;;18.34;57.46;100738.03;5074408;28;20025;-54
2022/08/20 04:01:59;;;;;;;18.20;9.55;;;;;;;18.45;57.24;100735.88;5060199;28;20120;-54
2022/08/20 04:04:25;;;;;;;19.00;10.73;;;;;;;18.04;57.77;100722.50;5042717;28;20088;-55
2022/08/20 04:06:51;;;;;;;15.45;9.45;;;;;;;18.48;57.16;100739.28;5044580;28;20026;-55
2022/08/20 04:09:17;;;;;;;19.58;10.75;;;;;;;18.35;56.96;100741.50;5062653;28;20027;-55
2022/08/20 04:11:43;;;;;;;25.45;11.00;;;;;;;18.53;56.11;100745.22;5061248;28;20049;-55
2022/08/20 04:14:10;;;;;;;21.35;9.63;;;;;;;18.31;55.94;100688.28;5052530;28;20064;-55
2022/08/20 04:16:39;;;;;;;19.05;10.30;;;;;;;18.60;55.72;100737.06;5062431;28;20029;-54
2022/08/20 04:19:05;;;;;;;20.00;9.95;;;;;;;18.68;55.50;100731.50;5081126;28;20025;-56
2022/08/20 04:21:31;;;;;;;16.70;9.60;;;;;;;18.66;55.80;100728.09;5065059;28;20099;-55
2022/08/20 04:23:57;;;;;;;15.70;9.50;;;;;;;18.78;55.14;100734.63;5085439;28;20047;-55
2022/08/20 04:26:22;;;;;;;11.73;7.60;;;;;;;18.48;55.10;100734.88;5086036;28;20028;-56
2022/08/20 04:28:54;;;;;;;19.17;8.73;;;;;;;18.70;55.44;100729.69;5079922;28;20028;-55
2022/08/20 04:31:20;;;;;;;18.48;9.55;;;;;;;19.00;54.28;100732.06;5065969;28;20024;-55
2022/08/20 04:33:46;;;;;;;17.77;9.43;;;;;;;18.97;54.49;100729.56;5065933;28;20322;-55
2022/08/20 04:36:13;;;;;;;15.27;7.88;;;;;;;18.92;53.73;100721.00;5065076;28;20036;-57
2022/08/20 04:38:39;;;;;;;16.65;8.77;;;;;;;19.05;53.06;100716.13;5048716;28;20041;-56
2022/08/20 04:41:04;;;;;;;17.98;8.07;;;;;;;19.03;52.99;100731.09;5045792;28;20512;-55
2022/08/20 04:43:35;;;;;;;13.48;8.25;;;;;;;19.17;52.40;100723.50;5045682;28;20068;-55
2022/08/20 04:46:05;;;;;;;16.80;8.30;;;;;;;18.94;52.33;100667.53;5045368;28;20195;-56
2022/08/20 04:48:31;;;;;;;18.25;8.85;;;;;;;19.29;51.98;100722.16;5045580;28;20021;-55
2022/08/20 04:50:58;;;;;;;14.13;7.80;;;;;;;19.40;51.56;100730.44;5045448;28;20025;-56
2022/08/20 04:53:26;;;;;;;12.57;7.78;;;;;;;19.27;51.31;100684.59;5045536;28;20029;-56
2022/08/20 04:55:55;;;;;;;12.82;8.25;;;;;;;19.33;51.61;100688.75;5050053;28;20309;-55
2022/08/20 04:58:26;;;;;;;9.93;7.57;;;;;;;19.45;50.62;100715.34;5045709;28;20032;-54
2022/08/20 05:00:57;;;;;;;15.52;8.02;;;;;;;19.49;50.76;100709.03;5045171;28;20071;-56
2022/08/20 05:03:24;;;;;;;14.85;7.05;;;;;;;19.57;50.87;100729.75;5045560;28;20025;-55
2022/08/20 05:05:50;;;;;;;16.70;7.97;;;;;;;19.75;50.74;100725.50;5045228;28;20025;-56
2022/08/20 05:08:18;;;;;;;16.08;7.90;;;;;;;19.26;50.29;100672.38;5058370;28;20079;-55
2022/08/20 05:10:44;;;;;;;14.07;8.32;;;;;;;19.59;49.75;100682.38;5056270;28;20033;-56
2022/08/20 05:13:10;;;;;;;12.25;8.55;;;;;;;20.01;49.21;100723.53;5043923;28;20025;-56
2022/08/20 05:15:37;;;;;;;12.35;8.32;;;;;;;20.25;49.30;100726.84;5059940;28;20333;-56
2022/08/20 05:18:06;;;;;;;20.15;9.25;;;;;;;20.18;48.86;100726.25;5064751;28;20264;-57
2022/08/20 05:20:40;;;;;;;14.30;8.35;;;;;;;20.14;48.57;100723.84;5064893;28;20055;-57
2022/08/20 05:23:08;;;;;;;17.48;7.55;;;;;;;20.27;48.26;100743.41;5064932;28;20029;-56
2022/08/20 05:25:35;;;;;;;18.50;7.80;;;;;;;20.25;47.83;100736.50;5064154;28;20108;-56
2022/08/20 05:28:08;;;;;;;11.45;6.90;;;;;;;20.25;47.64;100683.88;5067775;28;20044;-56
2022/08/20 05:30:39;;;;;;;12.68;6.78;;;;;;;20.08;47.05;100724.97;5045000;28;20260;-56
2022/08/20 05:33:06;;;;;;;12.23;7.38;;;;;;;20.35;47.52;100732.53;5044592;28;20061;-56
2022/08/20 05:35:37;;;;;;;10.32;6.78;;;;;;;20.08;47.08;100697.78;5060200;28;20033;-56
2022/08/20 05:38:05;;;;;;;13.73;6.45;;;;;;;19.92;48.09;100718.66;5053139;28;20056;-56
2022/08/20 05:40:31;;;;;;;13.98;6.55;;;;;;;20.21;47.79;100750.72;5057889;28;20036;-56
2022/08/20 05:42:56;;;;;;;12.65;6.50;;;;;;;20.38;48.07;100750.81;5084599;28;20067;-56
2022/08/20 05:45:22;;;;;;;14.98;6.57;;;;;;;20.51;47.76;100749.34;5081564;28;20040;-56
2022/08/20 05:47:48;;;;;;;11.65;5.70;;;;;;;20.45;47.54;100752.25;5064469;28;20241;-56
2022/08/20 05:50:15;;;;;;;11.13;6.13;;;;;;;20.37;47.32;100762.25;5064143;28;20051;-56
2022/08/20 05:52:41;;;;;;;11.30;5.47;;;;;;;19.95;47.97;100755.34;5056237;28;20032;-57
2022/08/20 05:55:09;;;;;;;12.55;5.32;;;;;;;19.85;47.79;100717.22;5049365;28;20308;-56
2022/08/20 05:57:36;;;;;;;15.48;5.93;;;;;;;20.17;48.07;100760.53;5044349;28;20093;-57
2022/08/20 06:00:10;;;;;;;10.48;5.40;;;;;;;20.15;48.25;100767.63;5042291;28;20030;-56
2022/08/20 06:05:20;;;;;;;8.10;4.78;;;;;;;19.76;48.76;100765.75;5070196;28;20032;-57
2022/08/20 06:07:46;;;;;;;11.02;4.45;;;;;;;19.56;49.50;100762.19;5075567;28;20028;-56
2022/08/20 06:10:12;;;;;;;8.63;4.60;;;;;;;19.57;49.69;100756.03;5061472;28;20025;-56
2022/08/20 06:12:38;;;;;;;9.55;5.20;;;;;;;19.44;50.17;100754.84;5064155;28;20033;-56
2022/08/20 06:15:05;;;;;;;7.82;4.28;;;;;;;19.41;50.08;100758.44;5063847;28;20119;-57
2022/08/20 06:17:32;;;;;;;10.05;4.05;;;;;;;19.28;50.65;100749.31;5063584;28;20084;-55
2022/08/20 06:20:01;;;;;;;8.82;4.50;;;;;;;19.46;51.04;100755.63;5063646;28;20314;-55
2022/08/20 06:22:28;;;;;;;9.45;5.20;;;;;;;19.48;50.83;100765.16;5070071;28;20028;-56
2022/08/20 06:24:54;;;;;;;10.75;4.50;;;;;;;19.37;51.05;100758.59;5083567;28;20027;-56
2022/08/20 06:27:20;;;;;;;11.35;4.85;;;;;;;19.38;51.03;100750.69;5083677;28;20032;-57
2022/08/20 06:29:46;;;;;;;11.05;4.47;;;;;;;19.67;50.37;100751.25;5063760;28;20021;-57
2022/08/20 06:32:12;;;;;;;11.55;4.78;;;;;;;19.69;50.76;100751.19;5050598;28;20049;-56
2022/08/20 06:34:38;;;;;;;11.48;4.63;;;;;;;19.53;51.09;100748.34;5054637;28;20040;-57
2022/08/20 06:37:35;;;;;;;10.30;4.18;;;;;;;19.55;51.19;100749.13;5050837;28;21980;-57
2022/08/20 06:40:13;;;;;;;7.05;4.47;;;;;;;19.07;50.98;100688.91;5059915;28;20071;-56
2022/08/20 06:42:42;;;;;;;14.18;4.97;;;;;;;19.45;51.05;100746.88;5061945;28;20055;-55
2022/08/20 06:45:10;;;;;;;9.40;4.30;;;;;;;19.09;51.25;100710.69;5059476;28;20252;-56
2022/08/20 06:47:39;;;;;;;10.93;4.25;;;;;;;19.35;51.13;100736.81;5060909;28;20028;-56
2022/08/20 06:50:08;;;;;;;5.88;4.32;;;;;;;19.45;50.97;100744.25;5062570;28;20025;-56
2022/08/20 06:52:36;;;;;;;13.30;4.53;;;;;;;19.34;51.04;100743.84;5069909;28;20037;-55
2022/08/20 06:55:02;;;;;;;13.18;4.70;;;;;;;19.44;51.27;100733.81;5061571;28;20024;-57
2022/08/20 06:57:29;;;;;;;10.25;4.07;;;;;;;19.67;50.60;100740.72;5043331;28;20025;-56
2022/08/20 06:59:54;;;;;;;6.50;4.03;;;;;;;19.74;50.17;100734.28;5043018;28;20044;-56
2022/08/20 07:02:22;;;;;;;10.45;4.68;;;;;;;19.67;50.18;100696.06;5041909;28;20033;-55
2022/08/20 07:04:48;;;;;;;9.82;4.75;;;;;;;19.92;50.30;100732.66;5051560;28;20021;-56
2022/08/20 07:07:18;;;;;;;9.57;4.80;;;;;;;19.80;50.50;100726.16;5062483;28;20070;-56
2022/08/20 07:09:45;;;;;;;6.97;4.15;;;;;;;19.49;50.53;100730.03;5062889;28;20040;-56
2022/08/20 07:12:10;;;;;;;10.45;4.28;;;;;;;19.87;50.52;100732.03;5083088;28;20070;-56
2022/08/20 07:14:36;;;;;;;9.88;4.72;;;;;;;19.72;50.13;100722.97;5083088;28;20044;-56
2022/08/20 07:17:02;;;;;;;12.00;4.43;;;;;;;19.89;50.27;100719.66;5082988;28;20036;-55
2022/08/20 07:19:30;;;;;;;9.77;4.70;;;;;;;20.00;50.55;100729.72;5083014;28;20024;-57
2022/08/20 07:21:56;;;;;;;10.80;4.57;;;;;;;19.78;50.16;100712.22;5082841;28;20028;-58
2022/08/20 07:24:21;;;;;;;10.15;4.32;;;;;;;19.96;49.87;100728.13;5083203;28;20024;-57
2022/08/20 07:26:49;;;;;;;10.13;4.60;;;;;;;20.11;49.83;100722.19;5049595;28;20300;-57
2022/08/20 07:29:15;;;;;;;9.13;4.13;;;;;;;19.89;49.48;100719.66;5057222;28;20021;-56
2022/08/20 07:34:25;;;;;;;10.70;4.63;;;;;;;20.16;48.92;100725.47;5062494;28;20029;-55
2022/08/20 07:36:50;;;;;;;13.75;4.30;;;;;;;20.11;49.00;100719.56;5063089;28;20025;-53
2022/08/20 07:39:16;;;;;;;7.70;4.30;;;;;;;20.33;48.44;100721.22;5082706;28;20051;-56
2022/08/20 07:41:42;;;;;;;14.75;4.75;;;;;;;20.11;49.01;100682.75;5051447;28;20097;-55
2022/08/20 07:44:07;;;;;;;11.30;4.18;;;;;;;20.30;48.55;100714.31;5064477;28;20043;-56
2022/08/20 07:46:33;;;;;;;12.35;4.35;;;;;;;20.43;47.57;100714.63;5069846;28;20067;-57
2022/08/20 07:48:59;;;;;;;11.73;4.40;;;;;;;20.58;47.98;100717.47;5066159;28;20218;-54
2022/08/20 07:51:25;;;;;;;8.98;4.45;;;;;;;20.24;47.66;100722.50;5086871;28;20023;-55
2022/08/20 07:53:51;;;;;;;9.75;4.40;;;;;;;20.47;47.69;100705.66;5086137;28;20048;-54
2022/08/20 07:56:22;;;;;;;8.82;4.18;;;;;;;20.07;47.47;100665.41;5055465;28;20248;-53
2022/08/20 07:58:52;;;;;;;10.63;4.60;;;;;;;20.27;47.11;100661.84;5061647;28;20048;-53
2022/08/20 08:01:21;;;;;;;10.30;5.05;;;;;;;20.58;47.53;100659.53;5078620;28;20037;-54
2022/08/20 08:03:47;;;;;;;6.22;3.92;;;;;;;20.90;46.38;100699.34;5060322;28;20013;-55
2022/08/20 08:06:13;;;;;;;9.95;3.83;;;;;;;20.74;45.28;100702.69;5085940;28;20028;-55
2022/08/20 08:08:40;;;;;;;10.35;4.72;;;;;;;20.77;45.47;100699.91;5071067;28;20280;-55
2022/08/20 08:11:06;;;;;;;6.40;4.05;;;;;;;20.79;44.42;100708.59;5076780;28;20095;-55
2022/08/20 08:13:38;;;;;;;8.75;3.95;;;;;;;20.58;44.65;100665.69;5086276;28;20047;-57
2022/08/20 08:16:07;;;;;;;6.72;4.22;;;;;;;20.93;44.62;100689.47;5086238;28;20028;-54
2022/08/20 08:18:40;;;;;;;12.38;4.28;;;;;;;21.26;44.68;100694.00;5086149;28;20313;-53
2022/08/20 08:21:07;;;;;;;6.35;3.75;;;;;;;21.31;43.20;100691.19;5048451;28;20365;-54
2022/08/20 08:23:33;;;;;;;9.88;4.28;;;;;;;21.55;42.70;100697.88;5046019;28;20032;-54
2022/08/20 08:26:00;;;;;;;6.30;3.90;;;;;;;21.73;41.94;100700.47;5065029;28;20080;-55
2022/08/20 08:28:28;;;;;;;9.32;4.55;;;;;;;21.73;42.32;100700.47;5076254;28;20127;-55
2022/08/20 08:30:54;;;;;;;5.75;3.83;;;;;;;21.68;41.31;100694.59;5045929;28;20306;-54
2022/08/20 08:33:29;;;;;;;8.00;4.22;;;;;;;21.48;41.75;100656.91;5046052;28;20071;-54
2022/08/20 08:36:04;;;;;;;11.00;4.45;;;;;;;21.86;41.71;100691.00;5080060;28;20335;-54
2022/08/20 08:38:33;;;;;;;6.68;4.03;;;;;;;21.54;41.32;100655.75;5058591;28;20041;-55
2022/08/20 08:41:30;;;;;;;6.95;4.30;;;;;;;21.88;41.51;100696.22;5045863;28;20226;-54
2022/08/20 08:44:21;;;;;;;8.57;4.85;;;;;;;21.84;41.30;100700.78;5063730;28;20032;-54
2022/08/20 08:46:55;;;;;;;6.37;3.90;;;;;;;21.93;41.53;100696.78;5078710;28;20035;-54
2022/08/20 08:49:25;;;;;;;10.85;4.10;;;;;;;21.69;40.02;100656.75;5077268;28;20877;-55
2022/08/20 08:51:58;;;;;;;5.25;3.88;;;;;;;21.94;40.59;100701.16;5045587;28;20029;-55
2022/08/20 08:54:27;;;;;;;9.80;4.28;;;;;;;21.86;40.69;100714.75;5064124;28;20040;-55
2022/08/20 08:56:53;;;;;;;9.00;3.80;;;;;;;21.87;40.29;100705.03;5058083;28;20234;-54
2022/08/20 08:59:21;;;;;;;11.93;4.57;;;;;;;22.01;41.05;100712.25;5058996;28;20325;-55
2022/08/20 09:01:51;;;;;;;7.47;4.10;;;;;;;21.73;40.91;100692.56;5057626;28;20082;-55
2022/08/20 09:04:20;;;;;;;9.82;4.47;;;;;;;21.69;41.50;100720.03;5058512;28;20051;-54
2022/08/20 09:06:48;;;;;;;7.45;4.28;;;;;;;21.86;41.61;100730.56;5046004;28;20033;-54
2022/08/20 09:09:20;;;;;;;6.20;4.57;;;;;;;21.54;41.92;100690.03;5064079;28;20572;-53
2022/08/20 09:11:53;;;;;;;9.15;4.35;;;;;;;22.02;41.80;100728.00;5049098;28;20025;-54
2022/08/20 09:14:21;;;;;;;11.02;4.70;;;;;;;21.91;41.76;100713.66;5044464;28;20310;-53
2022/08/20 09:16:47;;;;;;;8.00;5.05;;;;;;;22.03;41.20;100727.06;5059210;28;20016;-53
2022/08/20 09:19:12;;;;;;;9.77;4.60;;;;;;;22.04;41.04;100720.00;5064106;28;20039;-54
2022/08/20 09:21:38;;;;;;;9.05;5.13;;;;;;;21.78;39.34;100719.56;5062078;28;20020;-54
2022/08/20 09:24:04;;;;;;;12.45;5.15;;;;;;;21.79;38.84;100728.31;5058381;28;20025;-55
2022/08/20 09:26:30;;;;;;;12.98;6.65;;;;;;;21.55;39.75;100731.28;5061811;28;20032;-55
2022/08/20 09:28:56;;;;;;;11.70;6.40;;;;;;;21.75;40.07;100732.03;5063932;28;21055;-55
2022/08/20 09:31:23;;;;;;;11.65;6.38;;;;;;;21.80;40.65;100732.66;5057248;28;20021;-54
2022/08/20 09:33:50;;;;;;;14.57;7.88;;;;;;;21.29;39.36;100730.78;5063916;28;20131;-55
2022/08/20 09:36:15;;;;;;;11.32;7.60;;;;;;;21.55;40.20;100747.97;5064080;28;20393;-54
2022/08/20 09:38:41;;;;;;;15.68;7.93;;;;;;;21.53;40.29;100744.56;5060691;28;20060;-56
2022/08/20 09:41:07;;;;;;;11.45;8.27;;;;;;;21.35;40.29;100753.34;5062485;28;20260;-56
2022/08/20 09:43:32;;;;;;;12.75;8.15;;;;;;;21.23;40.91;100741.59;5062285;28;20021;-56
2022/08/20 09:45:58;;;;;;;12.77;7.82;;;;;;;21.41;41.21;100753.03;5062067;28;20013;-56
2022/08/20 09:48:23;;;;;;;11.73;8.23;;;;;;;21.29;41.84;100738.69;5063635;28;20070;-55
2022/08/20 09:50:50;;;;;;;13.25;8.73;;;;;;;21.09;42.34;100741.44;5062029;28;20021;-55
2022/08/20 09:53:18;;;;;;;12.15;9.30;;;;;;;21.28;43.32;100754.56;5062341;28;20035;-55
2022/08/20 09:55:47;;;;;;;18.83;8.88;;;;;;;20.78;44.34;100712.16;5062535;28;20093;-56
2022/08/20 09:58:34;;;;;;;13.52;8.70;;;;;;;20.77;44.71;100746.47;5059233;28;20053;-56
2022/08/20 10:01:05;;;;;;;16.40;8.45;;;;;;;20.94;44.12;100738.59;5051904;28;20094;-55
2022/08/20 10:03:31;;;;;;;14.32;8.52;;;;;;;21.12;45.08;100743.91;5055397;28;20260;-56
2022/08/20 10:05:57;;;;;;;11.70;8.35;;;;;;;20.77;45.99;100736.78;5046633;28;20037;-56
2022/08/20 10:08:22;;;;;;;12.02;8.63;;;;;;;20.80;46.47;100733.16;5059300;28;20032;-55
2022/08/20 10:10:48;;;;;;;10.32;8.32;;;;;;;20.69;47.31;100726.63;5055710;28;20298;-56
2022/08/20 10:13:13;;;;;;;13.00;7.90;;;;;;;20.86;46.77;100723.19;5058083;28;20028;-56
2022/08/20 10:15:39;;;;;;;10.57;7.75;;;;;;;20.55;46.02;100717.59;5052440;28;20191;-55
2022/08/20 10:18:06;;;;;;;12.80;7.45;;;;;;;20.51;47.86;100701.13;5045689;28;20021;-56
2022/08/20 10:20:34;;;;;;;12.40;7.00;;;;;;;20.61;47.36;100699.75;5056994;28;20052;-55
2022/08/20 10:23:00;;;;;;;15.65;7.15;;;;;;;20.33;48.79;100708.06;5061994;28;20214;-54
2022/08/20 10:25:27;;;;;;;13.65;7.32;;;;;;;20.49;48.83;100697.69;5059457;28;20079;-55
2022/08/20 10:27:54;;;;;;;14.63;6.85;;;;;;;20.50;49.04;100709.94;5057373;28;20041;-56
2022/08/20 10:30:20;;;;;;;12.55;7.18;;;;;;;20.38;49.08;100715.75;5061180;28;20301;-53
2022/08/20 10:32:46;;;;;;;10.95;6.70;;;;;;;20.33;50.54;100721.22;5061945;28;20029;-56
2022/08/20 10:35:12;;;;;;;8.48;5.57;;;;;;;20.24;49.63;100719.88;5053068;28;20028;-56
2022/08/20 10:37:37;;;;;;;9.75;6.30;;;;;;;20.17;50.45;100711.41;5046264;28;20040;-55
2022/08/20 10:40:04;;;;;;;14.50;6.38;;;;;;;20.31;50.29;100721.28;5061628;28;20049;-55
2022/08/20 10:42:30;;;;;;;15.40;6.30;;;;;;;20.31;51.06;100715.19;5063076;28;20328;-56
2022/08/20 10:44:55;;;;;;;9.48;5.40;;;;;;;20.21;51.02;100708.63;5046720;28;20025;-56
2022/08/20 10:47:28;;;;;;;9.90;5.22;;;;;;;20.00;51.66;100721.81;5073774;28;20043;-55
2022/08/20 10:49:56;;;;;;;13.02;5.55;;;;;;;20.08;51.85;100713.56;5064772;28;20060;-56
2022/08/20 10:52:23;;;;;;;8.30;5.53;;;;;;;20.15;52.04;100705.38;5063733;28;20032;-56
2022/08/20 10:54:50;;;;;;;11.23;5.25;;;;;;;20.16;51.48;100712.31;5059909;28;20025;-56
2022/08/20 10:57:22;;;;;;;10.00;5.47;;;;;;;20.39;51.32;100718.31;5059782;28;20021;-56
2022/08/20 10:59:50;;;;;;;12.57;5.63;;;;;;;20.52;50.46;100703.69;5049956;28;20033;-57
2022/08/20 11:02:17;;;;;;;11.27;5.75;;;;;;;20.50;50.48;100707.28;5057050;28;20217;-56
2022/08/20 11:04:43;;;;;;;8.38;4.75;;;;;;;20.25;49.92;100705.81;5057735;28;20093;-57
2022/08/20 11:07:22;;;;;;;7.68;4.50;;;;;;;20.43;50.42;100725.13;5058438;28;20071;-56
2022/08/20 11:09:48;;;;;;;9.98;4.90;;;;;;;20.27;49.73;100703.94;5056852;28;20206;-56
2022/08/20 11:12:17;;;;;;;6.72;4.88;;;;;;;20.14;49.61;100653.66;5060915;28;20068;-56
2022/08/20 11:14:42;;;;;;;9.40;4.90;;;;;;;20.53;49.95;100694.84;5061344;28;20209;-57
2022/08/20 11:17:08;;;;;;;10.00;5.13;;;;;;;20.51;49.69;100691.44;5061225;28;20013;-57
2022/08/20 11:19:42;;;;;;;15.38;4.95;;;;;;;20.60;50.39;100697.19;5061519;28;20032;-56
2022/08/20 11:22:08;;;;;;;9.63;5.05;;;;;;;20.58;50.41;100694.63;5063359;28;20096;-57
2022/08/20 11:24:34;;;;;;;7.57;4.93;;;;;;;20.52;50.75;100692.28;5066073;28;20301;-56
2022/08/20 11:27:00;;;;;;;11.65;4.78;;;;;;;20.39;50.14;100696.41;5065743;28;20028;-56
2022/08/20 11:29:26;;;;;;;8.98;4.30;;;;;;;20.42;49.95;100683.97;5064862;28;20573;-55